Time;durP1;ratioP1;P1;durP2;ratioP2;P2;SDS_P1;SDS_P2;PMS_P1;PMS_P2;Temp;Humidity;BMP_temperature;BMP_pressure;BME280_temperature;BME280_humidity;BME280_pressure;Samples;Min_cycle;Max_cycle;Signal;HPM_P1;HPM_P2
2023/02/25 00:01:32;;;;;;;;;5.50;3.00;;;;;23.08;32.73;100440.94;5052560;28;45773;-74
2023/02/25 00:03:57;;;;;;;;;1.50;1.50;;;;;23.08;32.83;100443.63;5065457;27;46319;-74
2023/02/25 00:06:24;;;;;;;;;5.75;2.25;;;;;23.09;32.91;100443.50;5076295;28;45395;-74
2023/02/25 00:08:50;;;;;;;;;5.75;4.00;;;;;23.06;33.10;100437.56;5058429;28;45351;-75
2023/02/25 00:11:17;;;;;;;;;4.25;3.00;;;;;23.05;32.62;100441.19;5078009;28;45276;-74
2023/02/25 00:13:43;;;;;;;;;3.00;2.00;;;;;23.07;32.96;100447.25;5078057;27;45461;-74
2023/02/25 00:16:09;;;;;;;;;2.50;2.50;;;;;23.07;32.71;100442.78;5072695;28;45762;-74
2023/02/25 00:18:34;;;;;;;;;3.50;2.75;;;;;23.06;32.78;100442.91;5076327;27;45285;-74
2023/02/25 00:21:04;;;;;;;;;3.50;3.50;;;;;23.04;32.67;100439.50;5075420;27;45312;-74
2023/02/25 00:23:30;;;;;;;;;3.50;2.75;;;;;23.07;32.46;100441.91;5055279;28;47153;-74
2023/02/25 00:26:04;;;;;;;;;3.00;2.50;;;;;23.07;32.30;100442.78;5077033;27;45395;-74
2023/02/25 00:28:30;;;;;;;;;6.00;4.00;;;;;23.05;32.70;100447.38;5076007;28;45483;-74
2023/02/25 00:30:55;;;;;;;;;5.00;3.00;;;;;;;;5065754;28;45358;-74
2023/02/25 00:33:20;;;;;;;;;5.33;3.00;;;;;22.96;32.86;100437.44;5078342;27;45444;-74
2023/02/25 00:35:47;;;;;;;;;3.00;2.25;;;;;23.01;32.91;100440.56;5075140;27;45489;-74
2023/02/25 00:38:13;;;;;;;;;4.50;4.00;;;;;23.01;32.88;100445.91;5057478;28;45208;-74
2023/02/25 00:40:38;;;;;;;;;2.00;2.00;;;;;23.05;32.75;100454.53;5065384;28;45561;-74
2023/02/25 00:43:05;;;;;;;;;2.00;1.75;;;;;23.04;32.45;100447.50;5060952;28;47466;-74
2023/02/25 00:45:31;;;;;;;;;4.50;2.25;;;;;23.02;32.96;100444.94;5061133;28;45617;-74
2023/02/25 00:47:56;;;;;;;;;3.00;2.00;;;;;23.02;32.43;100444.09;5075969;28;45569;-74
2023/02/25 00:50:22;;;;;;;;;2.25;2.25;;;;;23.00;32.43;100444.25;5065574;28;50510;-74
2023/02/25 00:52:47;;;;;;;;;3.00;3.00;;;;;23.02;32.44;100446.75;5064508;28;45461;-74
2023/02/25 00:55:12;;;;;;;;;3.00;1.25;;;;;23.02;32.70;100450.28;5074687;28;45394;-74
2023/02/25 00:57:38;;;;;;;;;3.00;1.25;;;;;22.88;32.72;100427.44;5064896;27;56925;-74
2023/02/25 01:00:15;;;;;;;;;4.25;2.50;;;;;23.02;32.72;100455.63;5054379;27;71011;-74
2023/02/25 01:02:44;;;;;;;;;2.00;2.00;;;;;23.00;32.73;100448.72;5057764;27;45525;-74
2023/02/25 01:05:13;;;;;;;;;1.00;1.00;;;;;23.02;32.29;100452.09;5069694;27;45286;-74
2023/02/25 01:07:39;;;;;;;;;3.00;3.00;;;;;23.01;32.39;100451.25;5054629;28;45308;-74
2023/02/25 01:10:05;;;;;;;;;1.25;1.25;;;;;23.01;32.78;100450.41;5058988;28;46121;-74
2023/02/25 01:12:31;;;;;;;;;4.00;2.00;;;;;23.00;32.50;100454.03;5071040;27;45429;-74
2023/02/25 01:14:57;;;;;;;;;6.25;2.25;;;;;22.98;32.28;100448.00;5075809;27;65839;-74
2023/02/25 01:17:22;;;;;;;;;2.50;2.50;;;;;23.00;32.55;100452.25;5073172;28;45866;-74
2023/02/25 01:19:48;;;;;;;;;1.25;1.25;;;;;22.99;32.33;100463.03;5071741;27;45823;-74
2023/02/25 01:22:14;;;;;;;;;2.00;2.00;;;;;22.97;32.78;100452.50;5076300;28;45465;-74
2023/02/25 01:24:39;;;;;;;;;1.50;1.25;;;;;22.99;32.33;100447.88;5098147;27;45161;-74
2023/02/25 01:27:04;;;;;;;;;2.75;2.75;;;;;23.01;32.22;100466.44;5074995;28;45451;-74
2023/02/25 01:29:34;;;;;;;;;3.50;1.00;;;;;22.98;32.24;100456.00;5047236;28;62746;-74
2023/02/25 01:32:01;;;;;;;;;7.25;2.25;;;;;23.00;32.60;100456.72;5064375;28;45441;-74
2023/02/25 01:34:27;;;;;;;;;4.50;2.00;;;;;22.98;32.29;100451.50;5065014;28;45618;-74
2023/02/25 01:36:53;;;;;;;;;2.25;1.00;;;;;22.97;32.13;100455.16;5065129;27;45433;-74
2023/02/25 01:39:20;;;;;;;;;1.00;1.00;;;;;22.97;32.31;100454.31;5070073;27;45399;-74
2023/02/25 01:41:47;;;;;;;;;1.75;1.00;;;;;22.97;32.64;100447.16;5076126;27;46120;-74
2023/02/25 01:44:33;;;;;;;;;2.00;2.00;;;;;22.95;32.44;100446.44;5068904;27;45746;-74
2023/02/25 01:47:00;;;;;;;;;0.75;0.75;;;;;22.97;32.71;100454.31;5071275;27;45500;-73
2023/02/25 01:49:37;;;;;;;;;2.25;1.75;;;;;22.94;32.44;100448.25;5064326;28;45335;-74
2023/02/25 01:52:06;;;;;;;;;2.00;0.25;;;;;22.94;32.33;100448.25;5069615;27;46293;-74
2023/02/25 01:54:32;;;;;;;;;2.00;2.00;;;;;22.91;32.69;100439.66;5064529;27;45774;-74
2023/02/25 01:56:58;;;;;;;;;2.25;1.00;;;;;22.94;32.48;100452.75;5072842;27;45512;-74
2023/02/25 01:59:26;;;;;;;;;0.50;0.50;;;;;22.92;32.30;100444.84;5052171;28;55709;-74
2023/02/25 02:01:51;;;;;;;;;2.00;1.00;;;;;22.94;32.42;100450.06;5077985;27;46309;-74
2023/02/25 02:04:18;;;;;;;;;1.00;1.00;;;;;22.92;32.33;100433.34;5050073;28;45745;-74
2023/02/25 02:06:45;;;;;;;;;3.00;0.50;;;;;22.93;32.45;100443.06;5076846;27;45461;-74
2023/02/25 02:09:14;;;;;;;;;0.25;0.25;;;;;22.93;32.31;100443.91;5066447;27;45270;-74
2023/02/25 02:11:39;;;;;;;;;1.00;1.00;;;;;22.92;32.29;100444.03;5069841;27;45506;-74
2023/02/25 02:14:07;;;;;;;;;3.50;1.00;;;;;22.92;32.09;100442.19;5067029;27;57662;-74
2023/02/25 02:16:39;;;;;;;;;1.00;0.50;;;;;22.93;32.66;100438.56;5075082;27;45478;-74
2023/02/25 02:19:50;;;;;;;;;2.00;0.25;;;;;22.93;32.59;100441.22;5058185;28;47000;-74
2023/02/25 02:22:41;;;;;;;;;0.75;0.75;;;;;22.90;32.32;100440.66;5070843;28;46133;-74
2023/02/25 02:25:35;;;;;;;;;1.75;1.00;;;;;22.92;32.33;100444.84;5081322;27;45820;-74
2023/02/25 02:28:18;;;;;;;;;2.25;1.00;;;;;22.91;31.89;100444.97;5075194;27;45463;-74
2023/02/25 02:31:21;;;;;;;;;1.25;1.00;;;;;22.89;32.29;100439.78;5070942;28;45415;-74
2023/02/25 02:34:07;;;;;;;;;1.00;1.00;;;;;22.88;32.60;100435.44;5067685;27;45727;-74
2023/02/25 02:36:43;;;;;;;;;6.75;0.75;;;;;22.84;32.19;100425.13;5069003;27;45864;-74
2023/02/25 02:39:45;;;;;;;;;0.25;0.25;;;;;22.89;32.17;100433.59;5075349;27;45472;-74
2023/02/25 02:42:34;;;;;;;;;1.75;1.75;;;;;22.88;32.58;100439.94;5072678;27;45425;-74
2023/02/25 02:45:45;;;;;;;;;2.25;0.25;;;;;22.83;32.06;100431.47;5066783;28;47986;-74
2023/02/25 02:48:23;;;;;;;;;2.00;1.00;;;;;22.83;32.28;100431.47;5044773;28;45641;-74
2023/02/25 02:51:02;;;;;;;;;1.00;1.00;;;;;22.84;32.57;100433.13;5070663;27;45417;-74
2023/02/25 02:53:35;;;;;;;;;3.50;1.00;;;;;22.80;32.15;100435.22;5063845;27;45554;-74
2023/02/25 02:56:04;;;;;;;;;0.25;0.00;;;;;22.85;32.28;100432.16;5059346;28;46088;-74
2023/02/25 02:58:38;;;;;;;;;1.75;1.25;;;;;22.86;32.34;100441.84;5070823;28;45320;-74
2023/02/25 03:01:18;;;;;;;;;1.75;0.00;;;;;22.85;32.06;100441.00;5049826;28;45661;-74
2023/02/25 03:04:05;;;;;;;;;1.00;1.00;;;;;22.83;32.50;100444.81;5074844;27;45515;-75
2023/02/25 03:06:33;;;;;;;;;0.00;0.00;;;;;22.85;32.48;100446.34;5059185;28;46228;-74
2023/02/25 03:09:05;;;;;;;;;3.75;0.00;;;;;22.83;32.30;100455.47;5065194;28;45687;-75
2023/02/25 03:11:30;;;;;;;;;2.50;1.00;;;;;22.84;32.44;100449.13;5063185;28;46888;-75
2023/02/25 03:13:56;;;;;;;;;4.25;1.00;;;;;22.83;32.38;100453.63;5061945;28;68616;-75
2023/02/25 03:16:27;;;;;;;;;1.25;0.75;;;;;22.82;32.20;100451.94;5052850;28;60565;-75
2023/02/25 03:18:58;;;;;;;;;3.00;0.75;;;;;22.83;31.96;100452.81;5065536;28;45322;-75
2023/02/25 03:21:31;;;;;;;;;1.75;0.50;;;;;22.82;31.88;100457.28;5066812;27;45462;-75
2023/02/25 03:23:57;;;;;;;;;1.25;0.25;;;;;22.80;31.80;100453.88;5077742;28;45774;-75
2023/02/25 03:26:26;;;;;;;;;0.25;0.25;;;;;22.82;32.20;100446.59;5072750;27;69054;-75
2023/02/25 03:28:52;;;;;;;;;2.00;0.25;;;;;22.80;32.31;100451.22;5049463;28;45420;-75
2023/02/25 03:31:25;;;;;;;;;0.00;0.00;;;;;22.82;31.90;100454.59;5046344;28;45431;-75
2023/02/25 03:34:10;;;;;;;;;1.75;0.50;;;;;22.81;32.38;100463.59;5073872;28;45633;-75
2023/02/25 03:36:42;;;;;;;;;0.75;0.75;;;;;22.80;31.80;100451.22;5071352;27;46328;-75
2023/02/25 03:39:11;;;;;;;;;1.00;1.00;;;;;22.79;32.28;100457.56;5072450;27;45217;-75
2023/02/25 03:41:38;;;;;;;;;1.00;1.00;;;;;22.79;32.25;100456.69;5080697;27;45260;-74
2023/02/25 03:44:07;;;;;;;;;0.00;0.00;;;;;22.80;32.49;100453.88;5072056;27;45478;-74
2023/02/25 03:46:34;;;;;;;;;1.00;1.00;;;;;22.77;32.25;100453.28;5049379;28;46158;-74
2023/02/25 03:49:01;;;;;;;;;0.00;0.00;;;;;22.78;32.27;100463.84;5079573;28;46115;-74
2023/02/25 03:51:30;;;;;;;;;0.75;0.75;;;;;22.80;32.10;100466.38;5063829;28;45426;-74
2023/02/25 03:53:56;;;;;;;;;2.25;0.75;;;;;22.75;32.04;100459.63;5065438;28;45539;-74
2023/02/25 03:56:21;;;;;;;;;1.00;1.00;;;;;22.77;32.04;100462.16;5067764;28;45700;-73
2023/02/25 03:58:47;;;;;;;;;1.00;0.25;;;;;22.74;31.88;100459.75;5074516;27;67022;-73
2023/02/25 04:01:19;;;;;;;;;0.75;0.75;;;;;22.75;32.14;100456.09;5064247;27;46035;-73
2023/02/25 04:03:44;;;;;;;;;3.50;1.00;;;;;22.74;32.10;100465.91;5062805;27;45380;-73
2023/02/25 04:06:13;;;;;;;;;0.25;0.25;;;;;22.70;32.55;100460.94;5076038;27;47069;-74
2023/02/25 04:08:39;;;;;;;;;0.25;0.25;;;;;22.75;32.30;100470.28;5076951;28;45322;-73
2023/02/25 04:11:05;;;;;;;;;0.25;0.25;;;;;22.73;32.05;100472.25;5064340;28;45425;-74
2023/02/25 04:13:30;;;;;;;;;0.25;0.25;;;;;22.74;32.07;100468.59;5071559;27;45369;-74
2023/02/25 04:15:55;;;;;;;;;1.00;1.00;;;;;22.74;31.95;100473.91;5061925;28;59253;-74
2023/02/25 04:18:23;;;;;;;;;1.25;1.00;;;;;22.74;32.42;100473.09;5067559;28;45238;-74
2023/02/25 04:20:49;;;;;;;;;1.00;0.75;;;;;22.73;32.13;100480.25;5068993;28;45768;-74
2023/02/25 04:23:15;;;;;;;;;0.25;0.25;;;;;22.73;31.66;100488.25;5076028;28;45626;-75
2023/02/25 04:25:42;;;;;;;;;1.75;0.00;;;;;22.73;31.95;100488.25;5069278;28;45424;-75
2023/02/25 04:28:07;;;;;;;;;0.00;0.00;;;;;22.70;31.90;100484.97;5076747;28;45251;-74
2023/02/25 04:30:32;;;;;;;;;0.00;0.00;;;;;22.73;31.85;100493.59;5068121;27;58048;-73
2023/02/25 04:32:58;;;;;;;;;2.00;0.00;;;;;22.73;32.31;100498.06;5066624;28;65420;-74
2023/02/25 04:35:23;;;;;;;;;1.25;0.00;;;;;22.66;32.19;100486.19;5071360;28;66430;-74
2023/02/25 04:37:48;;;;;;;;;1.00;1.00;;;;;22.67;32.18;100495.91;5075837;28;61834;-74
2023/02/25 04:40:17;;;;;;;;;0.50;0.50;;;;;22.70;32.19;100498.28;5053964;28;45501;-75
2023/02/25 04:42:43;;;;;;;;;0.00;0.00;;;;;22.72;32.13;100496.38;5071283;27;45453;-75
2023/02/25 04:45:09;;;;;;;;;0.75;0.75;;;;;22.66;31.89;100495.03;5068496;27;48131;-75
2023/02/25 04:47:35;;;;;;;;;1.00;1.00;;;;;22.64;31.85;100491.66;5069538;27;45358;-74
2023/02/25 04:50:01;;;;;;;;;0.25;0.25;;;;;22.68;32.05;100492.25;5065837;28;45387;-74
2023/02/25 04:52:26;;;;;;;;;1.25;1.25;;;;;22.68;31.59;100495.78;5068820;27;45593;-74
2023/02/25 04:54:52;;;;;;;;;0.00;0.00;;;;;22.69;32.34;100492.13;5078389;27;45468;-75
2023/02/25 04:57:17;;;;;;;;;4.75;0.00;;;;;22.59;31.87;100479.66;5079602;27;45453;-74
2023/02/25 04:59:43;;;;;;;;;3.25;1.00;;;;;22.67;31.76;100495.91;5063744;28;45219;-74
2023/02/25 05:02:08;;;;;;;;;0.00;0.00;;;;;22.66;32.03;100491.53;5069863;27;45161;-74
2023/02/25 05:04:37;;;;;;;;;1.00;1.00;;;;;22.66;32.25;100500.38;5073667;28;65391;-74
2023/02/25 05:07:04;;;;;;;;;0.00;0.00;;;;;22.65;32.24;100497.84;5084227;27;45622;-74
2023/02/25 05:09:29;;;;;;;;;0.00;0.00;;;;;22.67;32.27;100495.91;5070282;28;45518;-74
2023/02/25 05:11:55;;;;;;;;;2.50;0.50;;;;;22.66;32.39;100491.53;5070019;27;45484;-74
2023/02/25 05:14:20;;;;;;;;;3.00;0.25;;;;;22.67;32.04;100494.06;5069723;27;65866;-74
2023/02/25 05:16:46;;;;;;;;;1.00;1.00;;;;;22.69;32.26;100496.63;5072194;27;63059;-74
2023/02/25 05:19:22;;;;;;;;;0.00;0.00;;;;;22.70;32.04;100485.84;5071829;27;45396;-74
2023/02/25 05:21:51;;;;;;;;;2.00;0.25;;;;;22.72;31.86;100481.22;5069816;27;45430;-74
2023/02/25 05:24:17;;;;;;;;;1.50;1.00;;;;;22.77;32.46;100493.31;5064844;28;46492;-74
2023/02/25 05:26:43;;;;;;;;;1.75;0.00;;;;;22.76;32.28;100489.81;5072546;28;45488;-74
2023/02/25 05:29:09;;;;;;;;;0.00;0.00;;;;;22.77;32.15;100493.31;5067107;27;45380;-74
2023/02/25 05:31:34;;;;;;;;;1.00;1.00;;;;;22.77;32.32;100487.97;5069524;27;45319;-74
2023/02/25 05:34:00;;;;;;;;;0.00;0.00;;;;;22.83;31.80;100498.16;5049559;28;46832;-74
2023/02/25 05:36:26;;;;;;;;;0.50;0.00;;;;;22.82;32.37;100499.13;5076395;27;45616;-74
2023/02/25 05:38:57;;;;;;;;;0.25;0.25;;;;;22.82;31.78;100499.97;5065974;28;45549;-74
2023/02/25 05:41:25;;;;;;;;;0.25;0.00;;;;;22.83;32.01;100499.00;5075080;27;45547;-74
2023/02/25 05:43:50;;;;;;;;;1.25;0.00;;;;;22.84;31.72;100492.69;5063669;28;45466;-74
2023/02/25 05:46:16;;;;;;;;;0.00;0.00;;;;;22.82;32.15;100494.63;5065696;28;60565;-74
2023/02/25 05:48:44;;;;;;;;;0.75;0.00;;;;;22.86;31.74;100497.88;5061787;28;57624;-74
2023/02/25 05:51:12;;;;;;;;;0.50;0.25;;;;;22.86;32.19;100489.88;5063953;28;45421;-73
2023/02/25 05:53:38;;;;;;;;;1.00;0.00;;;;;22.82;31.81;100481.28;5055413;27;47520;-74
2023/02/25 05:56:05;;;;;;;;;0.00;0.00;;;;;22.87;31.99;100495.09;5070955;28;45353;-74
2023/02/25 05:58:31;;;;;;;;;0.25;0.00;;;;;22.87;31.71;100491.59;5078775;27;45399;-74
2023/02/25 06:00:56;;;;;;;;;0.25;0.00;;;;;22.81;31.74;100476.09;5070103;27;55631;-74
2023/02/25 06:03:21;;;;;;;;;0.25;0.00;;;;;22.88;32.13;100491.47;5069957;27;45282;-74
2023/02/25 06:05:47;;;;;;;;;0.25;0.00;;;;;22.89;31.75;100497.63;5066587;28;62527;-75
2023/02/25 06:08:12;;;;;;;;;1.00;0.00;;;;;22.86;31.84;100490.75;5066862;28;53628;-75
2023/02/25 06:10:38;;;;;;;;;0.25;0.00;;;;;22.86;31.84;100492.56;5071357;28;64139;-75
2023/02/25 06:13:08;;;;;;;;;0.75;0.00;;;;;22.88;31.64;100495.97;5066769;27;45529;-74
2023/02/25 06:15:36;;;;;;;;;1.75;0.25;;;;;22.88;31.49;100490.63;5066361;27;45667;-74
2023/02/25 06:18:02;;;;;;;;;0.00;0.00;;;;;22.86;31.46;100493.41;5069876;28;45386;-74
2023/02/25 06:20:27;;;;;;;;;0.00;0.00;;;;;22.87;31.87;100494.25;5046884;28;45400;-74
2023/02/25 06:22:53;;;;;;;;;0.00;0.00;;;;;22.86;31.46;100496.09;5071824;27;56159;-74
2023/02/25 06:25:19;;;;;;;;;0.00;0.00;;;;;22.84;31.69;100487.38;5067326;27;45450;-74
2023/02/25 06:27:44;;;;;;;;;0.25;0.00;;;;;22.85;31.54;100496.22;5067176;27;45442;-75
2023/02/25 06:30:10;;;;;;;;;2.00;0.00;;;;;22.87;31.61;100502.25;5068396;27;45303;-74
2023/02/25 06:32:35;;;;;;;;;2.75;0.75;;;;;22.85;31.60;100504.22;5070033;27;46902;-74
2023/02/25 06:35:01;;;;;;;;;2.00;0.50;;;;;22.87;31.53;100503.09;5066409;28;45259;-75
2023/02/25 06:37:26;;;;;;;;;1.00;0.00;;;;;22.83;31.73;100492.81;5073861;27;50789;-74
2023/02/25 06:39:52;;;;;;;;;0.00;0.00;;;;;22.85;31.28;100505.06;5065616;28;45623;-74
2023/02/25 06:42:17;;;;;;;;;0.25;0.00;;;;;22.84;31.83;100508.72;5066258;28;45524;-74
2023/02/25 06:44:43;;;;;;;;;0.75;0.00;;;;;22.84;31.65;100508.72;5065424;27;62043;-75
2023/02/25 06:47:08;;;;;;;;;0.00;0.00;;;;;22.81;31.42;100502.78;5049692;28;46557;-74
2023/02/25 06:49:34;;;;;;;;;0.00;0.00;;;;;22.82;31.74;100515.13;5071307;27;46771;-74
2023/02/25 06:51:59;;;;;;;;;1.00;0.00;;;;;22.78;31.32;100511.03;5078983;27;47088;-75
2023/02/25 06:54:26;;;;;;;;;2.00;1.00;;;;;22.82;31.40;100520.47;5065775;28;45365;-75
2023/02/25 06:56:52;;;;;;;;;1.00;0.25;;;;;22.81;31.44;100522.28;5072499;27;45446;-75
2023/02/25 06:59:17;;;;;;;;;0.25;0.25;;;;;22.81;31.55;100521.47;5060074;28;45520;-75
2023/02/25 07:01:43;;;;;;;;;0.00;0.00;;;;;22.83;31.42;100531.03;5075495;27;45531;-75
2023/02/25 07:04:13;;;;;;;;;3.00;0.00;;;;;22.81;31.31;100532.13;5076290;28;60130;-75
2023/02/25 07:06:39;;;;;;;;;0.25;0.25;;;;;22.81;31.59;100532.13;5070431;27;45698;-75
2023/02/25 07:09:04;;;;;;;;;0.00;0.00;;;;;22.75;31.89;100522.78;5059558;28;65885;-75
2023/02/25 07:11:32;;;;;;;;;0.00;0.00;;;;;22.82;31.55;100539.16;5080528;27;45456;-76
2023/02/25 07:13:57;;;;;;;;;0.25;0.25;;;;;22.78;31.55;100535.03;5067618;27;45298;-75
2023/02/25 07:16:23;;;;;;;;;0.00;0.00;;;;;22.79;31.62;100536.72;5070375;28;45655;-75
2023/02/25 07:18:49;;;;;;;;;1.25;0.00;;;;;22.80;31.55;100528.59;5054587;28;45852;-75
2023/02/25 07:21:16;;;;;;;;;0.50;0.00;;;;;22.79;31.83;100532.25;5075835;27;45463;-74
2023/02/25 07:23:42;;;;;;;;;0.00;0.00;;;;;22.82;31.54;100539.97;5067613;27;45801;-75
2023/02/25 07:26:10;;;;;;;;;0.50;0.00;;;;;22.82;31.53;100539.97;5076740;28;45299;-75
2023/02/25 07:28:36;;;;;;;;;0.25;0.00;;;;;22.81;31.66;100535.63;5068184;28;45780;-75
2023/02/25 07:31:02;;;;;;;;;2.00;0.00;;;;;22.86;31.88;100548.59;5071297;28;45559;-75
2023/02/25 07:33:29;;;;;;;;;2.75;0.00;;;;;22.81;32.09;100534.81;5078799;28;45293;-75
2023/02/25 07:35:55;;;;;;;;;0.00;0.00;;;;;22.87;32.24;100550.28;5067356;28;45573;-75
2023/02/25 07:38:20;;;;;;;;;0.50;0.00;;;;;22.86;31.92;100549.44;5058544;28;45497;-75
2023/02/25 07:40:46;;;;;;;;;0.50;0.00;;;;;22.87;31.53;100555.63;5078958;27;46105;-75
2023/02/25 07:43:11;;;;;;;;;0.25;0.25;;;;;22.89;31.81;100554.50;5078501;28;64993;-75
2023/02/25 07:45:36;;;;;;;;;1.00;0.00;;;;;22.93;31.64;100561.31;5074785;28;53670;-75
2023/02/25 07:48:02;;;;;;;;;1.00;0.00;;;;;22.94;31.88;100572.84;5076391;27;57593;-72
2023/02/25 07:50:27;;;;;;;;;1.00;0.00;;;;;22.93;31.80;100563.16;5074382;28;45973;-72
2023/02/25 07:52:53;;;;;;;;;1.25;0.25;;;;;22.88;31.61;100568.84;5068790;27;46201;-76
2023/02/25 07:55:18;;;;;;;;;1.50;1.50;;;;;22.84;31.25;100571.88;5070358;28;45418;-80
2023/02/25 07:57:44;;;;;;;;;2.25;1.00;;;;;22.79;31.40;100566.94;5070651;28;46781;-79
2023/02/25 08:00:10;;;;;;;;;3.75;1.00;;;;;22.76;30.59;100567.19;5065151;28;46792;-74
2023/02/25 08:02:36;;;;;;;;;2.25;0.25;;;;;22.71;30.67;100569.38;5074801;27;45735;-85
2023/02/25 08:05:03;;;;;;;;;2.50;1.75;;;;;22.65;30.78;100567.22;5064573;28;45557;-78
2023/02/25 08:07:29;;;;;;;;;2.75;2.00;;;;;22.63;30.96;100570.00;5053554;28;45387;-80
2023/02/25 08:09:54;;;;;;;;;4.00;1.00;;;;;22.60;30.43;100569.41;5071821;28;47355;-80
2023/02/25 08:12:20;;;;;;;;;1.25;1.00;;;;;22.58;30.69;100569.50;5075481;27;58649;-80
2023/02/25 08:14:45;;;;;;;;;2.75;1.75;;;;;22.54;30.71;100582.25;5061400;28;56330;-79
2023/02/25 08:17:12;;;;;;;;;5.25;1.00;;;;;22.47;30.26;100573.03;5051945;28;67907;-82
2023/02/25 08:19:37;;;;;;;;;1.00;1.00;;;;;22.46;30.48;100582.00;5076883;28;45773;-84
2023/02/25 08:22:03;;;;;;;;;1.75;1.00;;;;;22.44;30.36;100583.94;5069552;28;45564;-79
2023/02/25 08:24:29;;;;;;;;;3.25;1.00;;;;;22.39;30.06;100585.28;5069671;28;45550;-77
2023/02/25 08:26:54;;;;;;;;;1.75;1.25;;;;;22.32;30.27;100575.09;5070455;28;45488;-83
2023/02/25 08:29:19;;;;;;;;;2.25;0.75;;;;;22.29;30.14;100582.47;5073840;27;56619;-77
2023/02/25 08:31:45;;;;;;;;;2.50;0.50;;;;;22.31;29.88;100572.53;5069793;27;48986;-77
2023/02/25 08:34:11;;;;;;;;;1.75;0.75;;;;;22.29;30.28;100582.47;5065857;28;45538;-79
2023/02/25 08:36:37;;;;;;;;;2.50;1.00;;;;;22.26;29.83;100582.72;5069838;27;45470;-79
2023/02/25 08:39:03;;;;;;;;;2.25;1.00;;;;;22.27;30.21;100582.59;5068324;28;47013;-76
2023/02/25 08:41:29;;;;;;;;;3.00;1.00;;;;;22.27;30.34;100582.59;5051366;28;45359;-72
2023/02/25 08:43:55;;;;;;;;;1.50;0.50;;;;;22.26;29.77;100588.88;5069214;27;46137;-75
2023/02/25 08:46:22;;;;;;;;;2.00;0.25;;;;;22.24;29.93;100579.28;5072380;27;45540;-76
2023/02/25 08:48:51;;;;;;;;;0.00;0.00;;;;;22.27;29.78;100589.75;5067925;28;45503;-75
2023/02/25 08:51:18;;;;;;;;;1.75;1.00;;;;;22.24;29.64;100588.16;5073822;27;45659;-76
2023/02/25 08:53:43;;;;;;;;;1.25;0.00;;;;;22.22;29.49;100578.56;5075483;27;45421;-73
2023/02/25 08:56:11;;;;;;;;;1.75;0.25;;;;;22.25;29.83;100587.19;5079678;28;45263;-75
2023/02/25 08:58:37;;;;;;;;;0.25;0.25;;;;;22.24;29.55;100574.84;5045408;28;47078;-75
2023/02/25 09:01:14;;;;;;;;;2.00;0.00;;;;;22.24;29.45;100572.16;5069141;27;45691;-72
2023/02/25 09:03:51;;;;;;;;;1.75;0.00;;;;;22.26;30.20;100574.72;5050499;28;45698;-73
2023/02/25 09:06:22;;;;;;;;;1.00;0.00;;;;;22.29;30.00;100570.03;5070473;28;45340;-73
2023/02/25 09:08:47;;;;;;;;;1.00;0.25;;;;;22.32;30.17;100572.44;5045599;28;47461;-72
2023/02/25 09:11:13;;;;;;;;;1.00;0.00;;;;;22.35;30.35;100574.03;5072475;28;45703;-73
2023/02/25 09:13:38;;;;;;;;;2.00;1.00;;;;;22.39;30.69;100574.63;5060931;27;45409;-72
2023/02/25 09:16:04;;;;;;;;;0.50;0.50;;;;;22.41;30.35;100570.84;5068660;28;64576;-71
2023/02/25 09:18:30;;;;;;;;;3.50;1.00;;;;;22.41;30.74;100565.50;5073810;27;45812;-73
2023/02/25 09:21:02;;;;;;;;;7.25;4.00;;;;;22.48;31.03;100572.06;5075547;27;45618;-74
2023/02/25 09:23:27;;;;;;;;;1.50;1.50;;;;;22.50;30.60;100572.78;5053169;28;46552;-73
2023/02/25 09:25:53;;;;;;;;;5.50;4.00;;;;;22.53;30.92;100569.03;5091809;27;62988;-73
2023/02/25 09:28:18;;;;;;;;;6.00;4.50;;;;;22.55;30.89;100573.25;5082588;27;45929;-75
2023/02/25 09:30:45;;;;;;;;;5.75;3.75;;;;;22.60;30.82;100588.91;5071184;27;51469;-72
2023/02/25 09:33:11;;;;;;;;;7.25;4.00;;;;;22.63;31.01;100575.34;5063263;27;45469;-72
2023/02/25 09:35:36;;;;;;;;;4.25;2.75;;;;;22.64;31.27;100577.00;5070694;27;45530;-72
2023/02/25 09:38:01;;;;;;;;;3.25;2.25;;;;;22.68;30.97;100583.81;5065356;28;45500;-77
2023/02/25 09:40:27;;;;;;;;;4.75;2.00;;;;;22.73;31.53;100588.75;5078384;27;47681;-75
2023/02/25 09:43:07;;;;;;;;;4.75;2.00;;;;;22.76;31.05;100585.84;5074175;27;45483;-76
2023/02/25 09:45:33;;;;;;;;;7.75;2.00;;;;;22.72;31.19;100571.91;5054638;28;45528;-74
2023/02/25 09:48:14;;;;;;;;;4.75;2.25;;;;;22.80;31.10;100576.63;5080125;27;45419;-74
2023/02/25 09:50:45;;;;;;;;;3.00;2.00;;;;;22.84;31.15;100574.56;5069079;28;45646;-76
2023/02/25 09:53:14;;;;;;;;;3.25;1.50;;;;;22.85;31.16;100568.25;5069829;28;45593;-76
2023/02/25 09:55:41;;;;;;;;;4.00;2.00;;;;;22.85;31.55;100574.44;5070732;28;45536;-76
2023/02/25 09:58:10;;;;;;;;;3.50;1.50;;;;;22.89;31.54;100583.03;5063876;28;47172;-76
2023/02/25 10:01:00;;;;;;;;;4.00;2.25;;;;;22.91;31.66;100578.41;5075327;28;45358;-76
2023/02/25 10:03:52;;;;;;;;;4.25;1.25;;;;;22.91;31.20;100579.28;5069793;28;45441;-76
2023/02/25 10:06:29;;;;;;;;;6.00;2.50;;;;;22.89;31.79;100578.53;5060072;28;45590;-76
2023/02/25 10:09:07;;;;;;;;;4.25;1.25;;;;;22.93;31.40;100582.66;5071469;28;46890;-76
2023/02/25 10:11:45;;;;;;;;;1.00;1.00;;;;;22.97;31.76;100574.41;5068326;27;45407;-76
2023/02/25 10:14:32;;;;;;;;;4.25;0.75;;;;;22.97;31.31;100575.25;5074233;27;45538;-76
2023/02/25 10:17:16;;;;;;;;;3.75;2.00;;;;;23.00;31.26;100574.16;5061495;28;45374;-75
2023/02/25 10:19:55;;;;;;;;;4.75;2.00;;;;;23.01;31.31;100575.84;5068509;27;48242;-76
2023/02/25 10:22:30;;;;;;;;;3.00;1.00;;;;;23.03;31.46;100577.41;5072279;27;45819;-74
2023/02/25 10:25:02;;;;;;;;;1.00;1.00;;;;;23.00;31.32;100566.13;5055041;28;45299;-72
2023/02/25 10:27:31;;;;;;;;;1.50;1.00;;;;;23.05;31.51;100580.81;5077625;27;45328;-72
2023/02/25 10:30:30;;;;;;;;;3.50;0.75;;;;;23.01;31.75;100570.50;5062227;28;47232;-72
2023/02/25 10:32:55;;;;;;;;;5.00;1.00;;;;;23.05;31.64;100561.31;5059198;27;45759;-72
2023/02/25 10:35:28;;;;;;;;;2.75;1.75;;;;;23.09;31.40;100571.63;5078360;27;60499;-72
2023/02/25 10:37:54;;;;;;;;;3.25;0.75;;;;;23.10;31.87;100567.94;5077015;27;45579;-72
2023/02/25 10:40:23;;;;;;;;;1.75;1.50;;;;;23.07;31.03;100559.34;5078020;27;65537;-73
2023/02/25 10:42:51;;;;;;;;;1.75;1.00;;;;;23.10;31.55;100564.44;5074271;28;45429;-73
2023/02/25 10:45:23;;;;;;;;;2.00;1.00;;;;;23.11;31.73;100566.16;5078403;27;45229;-73
2023/02/25 10:47:54;;;;;;;;;4.75;2.00;;;;;23.10;31.73;100554.59;5078818;27;45307;-75
2023/02/25 10:50:26;;;;;;;;;1.00;0.25;;;;;23.15;31.88;100564.06;5044482;28;45573;-73
2023/02/25 10:52:53;;;;;;;;;1.50;0.75;;;;;23.18;31.69;100574.47;5068772;27;45991;-73
2023/02/25 10:55:40;;;;;;;;;2.25;1.00;;;;;23.19;31.60;100574.34;5067028;27;45485;-74
2023/02/25 10:58:18;;;;;;;;;1.00;1.00;;;;;23.20;31.35;100568.06;5076093;27;45502;-73
2023/02/25 11:00:55;;;;;;;;;3.00;2.00;;;;;23.23;31.82;100570.47;5056990;28;47652;-73
2023/02/25 11:03:22;;;;;;;;;0.75;0.00;;;;;23.26;31.54;100570.19;5069460;28;45811;-73
2023/02/25 11:05:48;;;;;;;;;1.25;1.00;;;;;23.28;31.46;100562.94;5050890;28;45502;-73
2023/02/25 11:08:31;;;;;;;;;1.00;0.00;;;;;23.29;31.59;100559.28;5077258;27;63945;-73
2023/02/25 11:11:19;;;;;;;;;5.00;0.75;;;;;23.31;31.60;100562.66;5055412;28;47864;-73
2023/02/25 11:13:53;;;;;;;;;2.50;1.50;;;;;23.31;31.60;100546.63;5076056;28;45355;-73
2023/02/25 11:16:19;;;;;;;;;0.00;0.00;;;;;23.35;31.15;100549.91;5057670;28;45453;-73
2023/02/25 11:18:50;;;;;;;;;2.25;0.50;;;;;23.35;31.28;100549.91;5077218;27;59459;-73
2023/02/25 11:21:27;;;;;;;;;1.75;0.25;;;;;23.38;31.25;100549.66;5079552;28;46268;-73
2023/02/25 11:23:53;;;;;;;;;2.50;0.25;;;;;23.40;31.27;100555.69;5077371;28;45520;-71
2023/02/25 11:26:34;;;;;;;;;0.25;0.00;;;;;23.43;31.10;100557.28;5077646;27;45323;-71
2023/02/25 11:29:04;;;;;;;;;2.00;1.00;;;;;23.42;31.34;100550.22;5068304;27;45263;-73
2023/02/25 11:31:34;;;;;;;;;1.25;0.00;;;;;23.44;31.33;100545.59;5078828;27;45496;-73
2023/02/25 11:34:05;;;;;;;;;2.00;0.00;;;;;23.44;31.01;100542.94;5059238;28;45826;-73
2023/02/25 11:36:36;;;;;;;;;3.00;2.00;;;;;23.47;31.04;100538.19;5073304;28;45394;-73